Time;durP1;ratioP1;P1;durP2;ratioP2;P2;SDS_P1;SDS_P2;PMS_P1;PMS_P2;Temp;Humidity;BMP_temperature;BMP_pressure;BME280_temperature;BME280_humidity;BME280_pressure;Samples;Min_cycle;Max_cycle;Signal;HPM_P1;HPM_P2
2022/04/25 00:02:15;;;;;;;12.93;2.30;;;13.60;84.10;;;;;;5041110;28;20104;-60
2022/04/25 00:04:40;;;;;;;15.60;2.42;;;13.70;84.20;;;;;;5084128;28;20055;-60
2022/04/25 00:07:06;;;;;;;10.07;1.98;;;13.70;84.20;;;;;;5060010;28;20372;-60
2022/04/25 00:09:31;;;;;;;7.55;2.25;;;13.60;84.20;;;;;;5049141;28;20433;-60
2022/04/25 00:11:57;;;;;;;10.85;2.13;;;13.60;84.40;;;;;;5039822;28;20016;-60
2022/04/25 00:14:22;;;;;;;14.30;2.58;;;13.60;84.50;;;;;;5062613;28;20032;-60
2022/04/25 00:16:49;;;;;;;10.32;2.40;;;13.60;84.70;;;;;;5083496;28;20383;-60
2022/04/25 00:19:15;;;;;;;11.32;2.35;;;13.60;84.50;;;;;;5083942;28;20040;-60
2022/04/25 00:21:40;;;;;;;10.65;2.22;;;13.60;84.50;;;;;;5060393;28;20039;-60
2022/04/25 00:24:06;;;;;;;12.57;2.33;;;13.60;84.50;;;;;;5081104;28;20040;-60
2022/04/25 00:26:31;;;;;;;12.45;2.35;;;13.60;84.50;;;;;;5049466;28;20051;-60
2022/04/25 00:28:57;;;;;;;6.97;2.20;;;13.60;84.40;;;;;;5059560;28;20582;-60
2022/04/25 00:31:22;;;;;;;6.85;1.98;;;13.60;84.50;;;;;;5063326;28;20046;-60
2022/04/25 00:33:48;;;;;;;10.40;2.22;;;13.50;84.40;;;;;;5083579;28;20020;-61
2022/04/25 00:36:13;;;;;;;12.77;2.15;;;13.50;84.30;;;;;;5083977;28;20036;-60
2022/04/25 00:38:39;;;;;;;11.77;2.20;;;13.50;84.30;;;;;;5084490;28;20024;-59
2022/04/25 00:41:08;;;;;;;13.77;2.08;;;13.50;84.40;;;;;;5063949;28;20495;-60
2022/04/25 00:43:33;;;;;;;11.18;2.20;;;13.50;84.60;;;;;;5081932;28;20039;-60
2022/04/25 00:45:59;;;;;;;11.18;2.60;;;13.50;84.40;;;;;;5058729;28;20024;-60
2022/04/25 00:48:24;;;;;;;10.45;1.85;;;13.50;84.50;;;;;;5065666;28;20032;-59
2022/04/25 00:50:50;;;;;;;10.18;1.70;;;13.50;84.60;;;;;;5060199;28;20032;-60
2022/04/25 00:53:15;;;;;;;11.93;1.95;;;13.50;84.80;;;;;;5083209;28;20028;-60
2022/04/25 00:55:41;;;;;;;6.35;1.60;;;13.50;85.10;;;;;;5063821;28;20146;-60
2022/04/25 00:58:07;;;;;;;10.43;1.70;;;13.50;85.10;;;;;;5048649;28;20116;-60
2022/04/25 01:00:33;;;;;;;11.95;1.92;;;13.50;85.10;;;;;;5059387;28;20337;-59
2022/04/25 01:02:59;;;;;;;10.07;2.10;;;13.50;85.00;;;;;;5044879;28;20052;-61
2022/04/25 01:05:24;;;;;;;9.85;2.00;;;13.50;84.80;;;;;;5080466;28;20062;-59
2022/04/25 01:07:50;;;;;;;6.25;1.33;;;13.50;85.00;;;;;;5083832;28;20060;-59
2022/04/25 01:10:15;;;;;;;5.72;1.73;;;13.50;85.00;;;;;;5083547;28;20039;-60
2022/04/25 01:12:41;;;;;;;5.78;1.90;;;13.50;85.00;;;;;;5083193;28;20666;-60
2022/04/25 01:15:08;;;;;;;7.45;1.55;;;13.50;85.10;;;;;;5083422;28;20035;-60
2022/04/25 01:17:34;;;;;;;9.25;1.65;;;13.40;85.00;;;;;;5044902;28;20039;-60
2022/04/25 01:19:59;;;;;;;7.15;1.70;;;13.40;85.20;;;;;;5046581;28;20532;-61
2022/04/25 01:22:28;;;;;;;6.10;1.60;;;13.40;85.30;;;;;;5083313;28;20020;-60
2022/04/25 01:27:38;;;;;;;11.00;1.95;;;13.40;85.30;;;;;;5067332;28;21987;-59
2022/04/25 01:30:05;;;;;;;6.38;1.98;;;13.40;85.10;;;;;;5082531;28;20538;-59
2022/04/25 01:32:30;;;;;;;3.90;1.55;;;13.40;85.10;;;;;;5051704;28;20021;-60
2022/04/25 01:34:56;;;;;;;7.82;1.90;;;13.40;85.10;;;;;;5082941;28;20043;-60
2022/04/25 01:37:21;;;;;;;6.80;1.95;;;13.40;85.10;;;;;;5083995;28;20106;-60
2022/04/25 01:39:48;;;;;;;6.60;1.50;;;13.40;85.00;;;;;;5059564;28;20323;-60
2022/04/25 01:42:14;;;;;;;5.90;1.33;;;13.40;85.10;;;;;;5059664;28;20020;-59
2022/04/25 01:44:40;;;;;;;7.07;1.60;;;13.40;84.90;;;;;;5063205;28;20035;-60
2022/04/25 01:47:06;;;;;;;8.07;1.30;;;13.40;85.00;;;;;;5062681;28;20104;-60
2022/04/25 01:49:32;;;;;;;5.28;1.20;;;13.40;85.20;;;;;;5082204;28;20028;-60
2022/04/25 01:52:00;;;;;;;4.45;1.55;;;13.40;85.00;;;;;;5061458;28;20955;-59
2022/04/25 01:54:26;;;;;;;4.15;1.30;;;13.40;85.00;;;;;;5047830;28;20023;-60
2022/04/25 01:56:52;;;;;;;6.18;1.13;;;13.30;85.10;;;;;;5061396;28;20032;-60
2022/04/25 01:59:18;;;;;;;4.97;1.30;;;13.30;85.20;;;;;;5065170;28;20414;-60
2022/04/25 02:01:44;;;;;;;5.22;1.42;;;13.30;85.30;;;;;;5082512;28;20139;-60
2022/04/25 02:04:09;;;;;;;2.95;1.35;;;13.30;85.30;;;;;;5059647;28;20278;-59
2022/04/25 02:06:35;;;;;;;2.78;1.20;;;13.30;85.30;;;;;;5078145;28;20090;-60
2022/04/25 02:09:00;;;;;;;7.22;1.50;;;13.30;85.30;;;;;;5083374;28;20035;-59
2022/04/25 02:11:26;;;;;;;3.92;1.25;;;13.30;85.30;;;;;;5061277;28;20484;-60
2022/04/25 02:13:52;;;;;;;3.17;1.05;;;13.30;85.30;;;;;;5047385;28;20024;-60
2022/04/25 02:16:18;;;;;;;4.28;1.38;;;13.30;85.30;;;;;;5046252;28;20024;-60
2022/04/25 02:18:44;;;;;;;4.32;0.95;;;13.20;85.10;;;;;;5041094;28;20036;-60
2022/04/25 02:21:10;;;;;;;4.30;1.25;;;13.30;85.30;;;;;;5058086;28;21104;-60
2022/04/25 02:23:36;;;;;;;3.17;1.38;;;13.20;85.20;;;;;;5086467;28;20047;-60
2022/04/25 02:26:01;;;;;;;5.82;1.23;;;13.20;85.30;;;;;;5085093;28;20036;-60
2022/04/25 02:28:27;;;;;;;4.78;1.30;;;13.20;85.20;;;;;;5086627;28;20139;-60
2022/04/25 02:30:53;;;;;;;2.58;1.10;;;13.20;85.20;;;;;;5086154;28;20045;-60
2022/04/25 02:33:19;;;;;;;4.45;1.20;;;13.20;85.20;;;;;;5063031;28;20052;-60
2022/04/25 02:35:44;;;;;;;7.40;1.23;;;13.30;85.50;;;;;;5058353;28;20029;-59
2022/04/25 02:38:10;;;;;;;3.15;1.02;;;13.20;85.80;;;;;;5086804;28;20031;-59
2022/04/25 02:40:36;;;;;;;4.15;1.00;;;13.30;85.30;;;;;;5062224;28;20111;-59
2022/04/25 02:43:01;;;;;;;6.85;1.17;;;13.20;85.10;;;;;;5060102;28;20037;-59
2022/04/25 02:45:27;;;;;;;4.30;1.35;;;13.30;85.10;;;;;;5084827;28;20028;-60
2022/04/25 02:47:53;;;;;;;4.07;1.00;;;13.20;85.00;;;;;;5068310;28;20073;-60
2022/04/25 02:50:19;;;;;;;3.28;1.13;;;13.30;85.90;;;;;;5085782;28;20098;-60
2022/04/25 02:52:44;;;;;;;4.47;1.20;;;13.30;85.60;;;;;;5064407;28;20122;-60
2022/04/25 02:55:10;;;;;;;5.47;1.30;;;13.20;85.60;;;;;;5085432;28;20510;-60
2022/04/25 02:57:35;;;;;;;1.73;1.02;;;13.20;85.40;;;;;;5085071;28;20040;-60
2022/04/25 03:00:01;;;;;;;4.10;1.00;;;13.20;85.40;;;;;;5063770;28;20219;-60
2022/04/25 03:02:27;;;;;;;3.88;1.25;;;13.20;85.50;;;;;;5084684;28;20059;-59
2022/04/25 03:04:52;;;;;;;2.42;0.95;;;13.20;85.50;;;;;;5055191;28;20040;-60
2022/04/25 03:07:18;;;;;;;3.58;1.10;;;13.20;85.50;;;;;;5064108;28;20082;-60
2022/04/25 03:09:43;;;;;;;2.80;1.23;;;13.20;85.50;;;;;;5061699;28;20386;-60
2022/04/25 03:12:09;;;;;;;5.55;0.90;;;13.20;85.60;;;;;;5085607;28;20623;-60
2022/04/25 03:14:35;;;;;;;4.25;1.15;;;13.20;85.50;;;;;;5047361;28;20036;-59
2022/04/25 03:17:01;;;;;;;2.83;1.30;;;13.20;85.50;;;;;;5085154;28;20025;-60
2022/04/25 03:19:27;;;;;;;4.00;1.27;;;13.20;85.50;;;;;;5059383;28;20020;-60
2022/04/25 03:21:53;;;;;;;5.00;1.17;;;13.20;85.30;;;;;;5085371;28;20067;-59
2022/04/25 03:24:18;;;;;;;1.67;0.70;;;13.20;85.30;;;;;;5048646;28;20495;-60
2022/04/25 03:26:44;;;;;;;4.78;1.17;;;13.20;85.40;;;;;;5084392;28;20415;-60
2022/04/25 03:29:10;;;;;;;4.28;1.00;;;13.20;85.50;;;;;;5062717;28;20231;-60
2022/04/25 03:31:36;;;;;;;4.10;0.90;;;13.20;85.30;;;;;;5084387;28;20468;-60
2022/04/25 03:34:02;;;;;;;3.75;0.93;;;13.20;85.40;;;;;;5085486;28;20065;-60
2022/04/25 03:36:28;;;;;;;3.33;0.90;;;13.20;85.60;;;;;;5082188;28;20100;-60
2022/04/25 03:38:53;;;;;;;2.15;1.05;;;13.20;85.50;;;;;;5085023;28;20028;-60
2022/04/25 03:41:20;;;;;;;1.67;1.00;;;13.20;85.50;;;;;;5050226;28;20032;-60
2022/04/25 03:43:45;;;;;;;2.50;1.00;;;13.20;85.80;;;;;;5058326;28;20032;-60
2022/04/25 03:46:12;;;;;;;5.30;1.00;;;13.10;85.80;;;;;;5083266;28;20024;-60
2022/04/25 03:48:41;;;;;;;1.13;0.68;;;13.20;85.70;;;;;;5085230;28;20379;-60
2022/04/25 03:51:06;;;;;;;2.40;1.00;;;13.20;85.60;;;;;;5062116;28;20016;-59
2022/04/25 03:53:32;;;;;;;1.90;0.85;;;13.20;85.40;;;;;;5083864;28;20032;-60
2022/04/25 03:58:41;;;;;;;2.33;0.90;;;13.20;85.70;;;;;;5083424;28;20047;-60
2022/04/25 04:01:07;;;;;;;5.68;0.98;;;13.20;85.80;;;;;;5062430;28;20060;-60
2022/04/25 04:03:35;;;;;;;1.55;0.73;;;13.20;85.80;;;;;;5059228;28;20086;-60
2022/04/25 04:06:01;;;;;;;4.22;1.00;;;13.10;86.30;;;;;;5057912;28;20024;-60
2022/04/25 04:08:27;;;;;;;2.50;0.98;;;13.20;85.70;;;;;;5048726;28;20040;-60
2022/04/25 04:10:52;;;;;;;1.67;0.90;;;13.10;85.60;;;;;;5084760;28;20380;-60
2022/04/25 04:13:18;;;;;;;3.30;0.90;;;13.10;85.60;;;;;;5061488;28;20523;-60
2022/04/25 04:15:43;;;;;;;5.22;0.90;;;13.10;85.50;;;;;;5054911;28;20542;-59
2022/04/25 04:18:09;;;;;;;1.58;0.75;;;13.10;85.40;;;;;;5083382;28;20051;-59
2022/04/25 04:20:34;;;;;;;1.55;0.80;;;13.10;85.40;;;;;;5061470;28;20595;-60
2022/04/25 04:23:00;;;;;;;1.67;0.80;;;13.10;85.30;;;;;;5083382;28;20119;-60
2022/04/25 04:25:26;;;;;;;2.70;0.90;;;13.10;85.40;;;;;;5081709;28;20036;-60
2022/04/25 04:27:51;;;;;;;2.22;0.77;;;13.10;85.70;;;;;;5082636;28;20497;-60
2022/04/25 04:30:18;;;;;;;2.67;0.88;;;13.10;85.50;;;;;;5082912;28;20024;-60
2022/04/25 04:32:44;;;;;;;1.27;0.70;;;13.10;85.50;;;;;;5082431;28;20020;-60
2022/04/25 04:35:15;;;;;;;1.80;0.90;;;13.10;85.60;;;;;;5061202;28;20195;-60
2022/04/25 04:37:41;;;;;;;1.08;0.63;;;13.10;85.40;;;;;;5048854;28;20036;-61
2022/04/25 04:42:52;;;;;;;1.35;0.75;;;13.10;85.70;;;;;;5047000;28;20651;-60
2022/04/25 04:45:18;;;;;;;3.35;1.00;;;13.10;85.80;;;;;;5054740;28;20039;-60
2022/04/25 04:47:43;;;;;;;1.40;0.60;;;13.10;85.80;;;;;;5076059;28;20305;-59
2022/04/25 04:50:14;;;;;;;4.57;0.85;;;13.00;85.70;;;;;;5045085;28;20024;-60
2022/04/25 04:52:58;;;;;;;2.78;0.95;;;13.10;85.80;;;;;;5031443;28;20421;-60
2022/04/25 04:55:24;;;;;;;3.10;0.60;;;13.00;85.80;;;;;;5081791;28;20032;-60
2022/04/25 04:57:50;;;;;;;2.13;0.82;;;13.00;85.70;;;;;;5044383;28;20044;-60
2022/04/25 05:00:16;;;;;;;5.00;0.85;;;13.00;85.60;;;;;;5057073;28;20807;-60
2022/04/25 05:02:43;;;;;;;1.08;0.70;;;13.00;85.70;;;;;;5082252;28;20082;-60
2022/04/25 05:05:09;;;;;;;0.95;0.60;;;13.00;85.80;;;;;;5047162;28;20024;-60
2022/04/25 05:07:35;;;;;;;1.35;0.70;;;13.00;85.70;;;;;;5082317;28;20098;-60
2022/04/25 05:10:04;;;;;;;3.78;0.73;;;13.00;85.80;;;;;;5080744;28;20515;-60
2022/04/25 05:12:30;;;;;;;3.15;0.68;;;13.00;85.80;;;;;;5065089;28;20043;-60
2022/04/25 05:14:55;;;;;;;0.77;0.70;;;13.00;85.80;;;;;;5058463;28;20028;-60
2022/04/25 05:17:22;;;;;;;4.65;0.70;;;13.00;85.70;;;;;;5060032;28;20054;-60
2022/04/25 05:19:48;;;;;;;2.67;0.88;;;13.00;85.60;;;;;;5062120;28;20123;-60
2022/04/25 05:22:13;;;;;;;1.40;0.57;;;13.00;85.60;;;;;;5078107;28;20135;-60
2022/04/25 05:24:39;;;;;;;2.33;0.90;;;12.90;85.90;;;;;;5077890;28;20043;-59
2022/04/25 05:27:05;;;;;;;4.60;1.08;;;13.10;86.20;;;;;;5055881;28;20477;-60
2022/04/25 05:29:30;;;;;;;3.53;0.85;;;13.00;85.60;;;;;;5056849;28;20595;-60
2022/04/25 05:31:56;;;;;;;5.07;0.95;;;13.10;85.50;;;;;;5080735;28;20039;-59
2022/04/25 05:34:21;;;;;;;6.38;1.35;;;13.10;85.40;;;;;;5057839;28;20047;-60
2022/04/25 05:36:47;;;;;;;11.60;1.35;;;13.10;85.70;;;;;;5041962;28;20082;-60
2022/04/25 05:39:12;;;;;;;5.18;1.08;;;13.10;86.00;;;;;;5078611;28;20039;-60
2022/04/25 05:41:38;;;;;;;7.45;1.27;;;13.10;86.10;;;;;;5061586;28;20031;-60
2022/04/25 05:44:04;;;;;;;6.32;1.10;;;13.10;85.90;;;;;;5051883;28;20028;-60
2022/04/25 05:46:30;;;;;;;7.45;0.68;;;13.10;85.90;;;;;;5054614;28;20089;-60
2022/04/25 05:51:59;;;;;;;5.25;0.90;;;13.20;85.50;;;;;;5051488;28;20043;-60
2022/04/25 05:54:29;;;;;;;6.82;1.00;;;13.10;85.50;;;;;;5063444;28;20074;-59
2022/04/25 05:56:55;;;;;;;6.13;1.33;;;13.20;85.60;;;;;;5060597;28;20123;-60
2022/04/25 05:59:20;;;;;;;6.45;1.42;;;13.20;85.60;;;;;;5080942;28;20547;-60
2022/04/25 06:01:46;;;;;;;5.50;1.10;;;13.10;85.50;;;;;;5059296;28;21799;-60
2022/04/25 06:04:11;;;;;;;8.13;1.20;;;13.20;85.40;;;;;;5060205;28;20038;-60
2022/04/25 06:06:37;;;;;;;7.20;1.70;;;13.20;85.60;;;;;;5081117;28;20290;-60
2022/04/25 06:09:03;;;;;;;7.95;1.60;;;13.10;85.60;;;;;;5081723;28;20103;-60
2022/04/25 06:11:29;;;;;;;12.50;1.77;;;13.20;85.70;;;;;;5029721;28;20388;-60
2022/04/25 06:13:56;;;;;;;8.00;1.55;;;13.10;85.90;;;;;;5085223;28;20193;-60
2022/04/25 06:16:21;;;;;;;13.82;1.52;;;13.10;85.80;;;;;;5078505;28;20028;-59
2022/04/25 06:18:47;;;;;;;19.77;2.45;;;13.20;86.00;;;;;;5035787;28;20050;-60
2022/04/25 06:21:12;;;;;;;19.88;2.15;;;13.20;86.10;;;;;;5086515;28;20024;-60
2022/04/25 06:23:38;;;;;;;26.23;1.85;;;13.20;86.40;;;;;;5082076;28;20028;-59
2022/04/25 06:26:03;;;;;;;10.68;1.48;;;13.20;86.40;;;;;;5060390;28;20507;-60
2022/04/25 06:28:29;;;;;;;64.55;3.17;;;13.20;86.70;;;;;;5085298;28;20123;-60
2022/04/25 06:30:54;;;;;;;13.55;1.98;;;13.20;87.20;;;;;;5085472;28;20107;-60
2022/04/25 06:33:20;;;;;;;10.20;1.38;;;13.20;87.00;;;;;;5078194;28;20581;-60
2022/04/25 06:35:46;;;;;;;25.55;2.03;;;13.20;86.90;;;;;;5060312;28;20056;-60
2022/04/25 06:38:12;;;;;;;21.50;2.20;;;13.20;86.80;;;;;;5052594;28;20036;-60
2022/04/25 06:40:37;;;;;;;33.47;3.88;;;13.20;86.80;;;;;;5065401;28;20025;-60
2022/04/25 06:43:04;;;;;;;40.60;3.15;;;13.20;86.70;;;;;;5049930;28;20039;-60
2022/04/25 06:45:30;;;;;;;27.13;2.88;;;13.20;87.20;;;;;;5062794;28;20402;-59
2022/04/25 06:47:55;;;;;;;41.22;2.67;;;13.30;87.50;;;;;;5065367;28;20044;-60
2022/04/25 06:50:21;;;;;;;32.35;3.53;;;13.30;87.70;;;;;;5053087;28;20594;-60
2022/04/25 06:52:46;;;;;;;38.92;3.95;;;13.30;88.20;;;;;;5048152;28;20125;-59
2022/04/25 06:55:12;;;;;;;44.33;3.72;;;13.30;88.50;;;;;;5080396;28;20796;-60
2022/04/25 06:57:38;;;;;;;49.30;5.60;;;13.20;88.50;;;;;;5081566;28;20035;-60
2022/04/25 07:00:04;;;;;;;51.03;5.10;;;13.30;88.60;;;;;;5061264;28;20043;-60
2022/04/25 07:02:30;;;;;;;58.80;4.85;;;13.30;88.70;;;;;;5054439;28;20513;-60
2022/04/25 07:04:55;;;;;;;40.35;4.28;;;13.30;89.50;;;;;;5077366;28;20032;-59
2022/04/25 07:07:21;;;;;;;40.83;3.97;;;13.30;88.60;;;;;;5084903;28;20055;-60
2022/04/25 07:09:47;;;;;;;29.52;3.75;;;13.30;88.20;;;;;;5040939;28;20071;-60
2022/04/25 07:12:12;;;;;;;34.65;3.42;;;13.40;87.80;;;;;;5083352;28;20047;-59
2022/04/25 07:14:38;;;;;;;37.67;5.53;;;13.40;87.70;;;;;;5056869;28;20420;-59
2022/04/25 07:17:04;;;;;;;52.70;4.95;;;13.50;87.70;;;;;;5077496;28;20387;-60
2022/04/25 07:19:30;;;;;;;45.72;4.70;;;13.40;87.70;;;;;;5079668;28;20027;-60
2022/04/25 07:30:08;;;;;;;55.75;7.35;;;13.50;88.10;;;;;;5073839;28;20134;-60
2022/04/25 07:32:37;;;;;;;40.55;5.25;;;13.50;88.00;;;;;;5076474;28;21920;-59
2022/04/25 07:35:04;;;;;;;33.78;6.68;;;13.50;87.70;;;;;;5058983;28;20448;-59
2022/04/25 07:37:33;;;;;;;43.63;5.50;;;13.50;87.50;;;;;;5054492;28;20119;-59
2022/04/25 07:39:59;;;;;;;36.20;5.80;;;13.50;87.80;;;;;;5058194;28;20028;-60
2022/04/25 07:42:24;;;;;;;45.13;4.50;;;13.50;88.50;;;;;;5055079;28;20449;-60
2022/04/25 07:44:50;;;;;;;35.80;5.25;;;13.50;88.70;;;;;;5077745;28;20209;-59
2022/04/25 07:47:16;;;;;;;45.15;5.38;;;13.50;88.50;;;;;;5080423;28;20047;-59
2022/04/25 07:49:41;;;;;;;46.60;5.45;;;13.50;88.70;;;;;;5082875;28;20056;-60
2022/04/25 07:52:07;;;;;;;36.75;4.53;;;13.60;88.90;;;;;;5059006;28;20043;-60
2022/04/25 07:54:33;;;;;;;35.40;4.75;;;13.60;88.80;;;;;;5054278;28;20040;-61
2022/04/25 07:56:58;;;;;;;28.08;4.72;;;13.60;88.50;;;;;;5055823;28;20046;-60
2022/04/25 07:59:24;;;;;;;29.88;3.60;;;13.60;88.30;;;;;;5030688;28;20131;-60
2022/04/25 08:01:49;;;;;;;135.57;12.55;;;13.60;88.30;;;;;;5045477;28;20044;-61
2022/04/25 08:04:15;;;;;;;559.45;42.55;;;13.60;88.50;;;;;;5082246;28;21270;-60
2022/04/25 08:06:40;;;;;;;1156.90;113.88;;;13.60;88.90;;;;;;5078873;28;20119;-60
2022/04/25 08:09:06;;;;;;;947.13;85.22;;;13.60;89.40;;;;;;5077413;28;20147;-60
2022/04/25 08:11:31;;;;;;;790.90;78.35;;;13.60;89.60;;;;;;5080275;28;20032;-60
2022/04/25 08:19:22;;;;;;;399.33;30.75;;;13.50;90.10;;;;;;5063003;28;20040;-60
2022/04/25 08:21:47;;;;;;;687.13;54.83;;;13.50;90.00;;;;;;5056669;28;20491;-59
2022/04/25 08:24:13;;;;;;;603.55;49.58;;;13.50;90.10;;;;;;5046289;28;20049;-59
2022/04/25 08:26:39;;;;;;;685.70;56.03;;;13.50;90.10;;;;;;5055746;28;20032;-60
2022/04/25 08:29:04;;;;;;;781.47;72.18;;;13.50;90.00;;;;;;5079202;28;20052;-60
2022/04/25 08:31:31;;;;;;;634.90;55.85;;;13.50;90.00;;;;;;5060904;28;20028;-59
2022/04/25 08:33:57;;;;;;;966.63;168.90;;;13.60;90.10;;;;;;5059109;28;20122;-59
2022/04/25 08:36:22;;;;;;;1200.97;282.52;;;13.50;90.30;;;;;;5080379;28;20147;-60
2022/04/25 08:38:48;;;;;;;724.92;143.13;;;13.50;90.20;;;;;;5048239;28;20047;-59
2022/04/25 08:41:15;;;;;;;633.05;106.85;;;13.50;90.30;;;;;;5054219;28;20817;-60
2022/04/25 08:43:41;;;;;;;457.58;72.82;;;13.50;90.30;;;;;;5046768;28;20040;-60
2022/04/25 08:46:08;;;;;;;447.95;63.85;;;13.50;90.50;;;;;;5080321;28;20352;-60
2022/04/25 08:48:34;;;;;;;374.67;52.50;;;13.40;90.60;;;;;;5058430;28;20097;-61
2022/04/25 08:51:00;;;;;;;249.07;34.33;;;13.40;90.80;;;;;;5080311;28;20032;-60
2022/04/25 08:53:26;;;;;;;219.55;29.15;;;13.40;90.80;;;;;;5044034;28;20115;-60
2022/04/25 08:55:54;;;;;;;196.55;30.05;;;13.40;90.80;;;;;;5047651;28;20082;-60
2022/04/25 08:58:19;;;;;;;160.65;25.17;;;13.40;90.80;;;;;;5059212;28;20105;-60
2022/04/25 09:00:45;;;;;;;159.27;22.23;;;13.50;90.70;;;;;;5072369;28;20488;-60
2022/04/25 09:03:12;;;;;;;133.73;18.88;;;13.50;90.90;;;;;;5078820;28;20177;-60
2022/04/25 09:05:38;;;;;;;154.15;21.48;;;13.50;90.90;;;;;;5077521;28;20081;-60
2022/04/25 09:08:04;;;;;;;167.50;21.23;;;13.50;90.70;;;;;;5060581;28;20039;-60
2022/04/25 09:10:30;;;;;;;191.82;22.40;;;13.50;90.70;;;;;;5081340;28;20044;-59
2022/04/25 09:12:55;;;;;;;131.88;19.88;;;13.50;90.40;;;;;;5043915;28;20043;-60
2022/04/25 09:15:22;;;;;;;132.38;15.77;;;13.50;90.70;;;;;;5077847;28;20043;-59
2022/04/25 09:17:47;;;;;;;123.20;12.15;;;13.60;90.40;;;;;;5061275;28;20043;-60
2022/04/25 09:20:13;;;;;;;92.68;12.13;;;13.60;90.60;;;;;;5062518;28;20125;-60
2022/04/25 09:22:42;;;;;;;100.03;12.20;;;13.70;90.40;;;;;;5044849;28;20028;-59
2022/04/25 09:25:11;;;;;;;93.13;14.80;;;13.70;90.30;;;;;;5078667;28;20525;-60
2022/04/25 09:27:38;;;;;;;87.35;9.38;;;13.70;90.00;;;;;;5077167;28;20035;-60
2022/04/25 09:30:16;;;;;;;59.95;9.00;;;13.80;90.10;;;;;;5080177;28;20131;-59
2022/04/25 09:32:43;;;;;;;61.33;7.43;;;13.80;90.30;;;;;;5077141;28;20097;-60
2022/04/25 09:35:35;;;;;;;52.35;7.03;;;13.80;90.60;;;;;;5056830;28;20036;-60
2022/04/25 09:38:03;;;;;;;50.90;7.28;;;13.80;90.10;;;;;;5060098;28;20028;-60
2022/04/25 09:40:29;;;;;;;56.65;7.57;;;13.80;90.10;;;;;;5061901;28;20088;-59
2022/04/25 09:43:12;;;;;;;71.78;8.00;;;13.90;90.00;;;;;;5061300;28;20031;-60
2022/04/25 09:45:42;;;;;;;94.57;9.10;;;13.90;90.00;;;;;;5076946;28;20030;-59
2022/04/25 09:48:11;;;;;;;134.05;10.25;;;13.80;89.80;;;;;;5039154;28;20128;-60
2022/04/25 09:50:38;;;;;;;343.40;25.15;;;13.90;89.90;;;;;;5057462;28;20017;-59
2022/04/25 09:53:04;;;;;;;417.40;31.25;;;13.90;89.90;;;;;;5059941;28;20103;-60
2022/04/25 09:55:31;;;;;;;233.32;20.58;;;13.90;89.50;;;;;;5079218;28;20135;-60
2022/04/25 09:58:19;;;;;;;153.32;13.13;;;13.90;89.50;;;;;;5055003;28;20035;-60
2022/04/25 10:00:45;;;;;;;122.18;11.98;;;14.00;89.20;;;;;;5059629;28;20067;-59
2022/04/25 10:03:10;;;;;;;89.80;9.35;;;14.00;89.30;;;;;;5056239;28;20175;-60
2022/04/25 10:05:42;;;;;;;137.20;12.25;;;14.00;88.80;;;;;;5073033;28;20046;-59
2022/04/25 10:08:09;;;;;;;95.47;8.50;;;14.00;88.70;;;;;;5080742;28;20105;-60
2022/04/25 10:10:38;;;;;;;99.03;8.35;;;13.80;88.30;;;;;;5042510;28;20402;-59
2022/04/25 10:13:04;;;;;;;94.03;7.30;;;14.00;88.10;;;;;;5057864;28;20137;-60
2022/04/25 10:15:29;;;;;;;133.60;12.10;;;14.00;88.50;;;;;;5079687;28;20458;-60
2022/04/25 10:17:55;;;;;;;75.03;9.27;;;14.10;88.40;;;;;;5061717;28;20119;-60
2022/04/25 10:20:21;;;;;;;66.80;6.88;;;14.10;88.70;;;;;;5059835;28;20347;-59
2022/04/25 10:22:46;;;;;;;77.05;6.95;;;14.10;88.50;;;;;;5075526;28;20023;-60
2022/04/25 10:25:12;;;;;;;78.18;7.05;;;14.10;88.40;;;;;;5058092;28;20123;-60
2022/04/25 10:27:39;;;;;;;105.40;7.20;;;14.10;88.20;;;;;;5077956;28;20020;-60
2022/04/25 10:30:10;;;;;;;100.78;8.70;;;14.10;88.30;;;;;;5059287;28;20028;-60
2022/04/25 10:32:36;;;;;;;113.63;9.40;;;14.10;88.50;;;;;;5079925;28;20020;-60
2022/04/25 10:35:01;;;;;;;112.55;10.52;;;14.20;88.20;;;;;;5081354;28;20089;-60
2022/04/25 10:37:30;;;;;;;119.05;9.30;;;14.20;88.50;;;;;;5071084;28;20042;-60
2022/04/25 10:39:56;;;;;;;78.70;8.77;;;14.20;88.20;;;;;;5084710;28;20377;-61
2022/04/25 10:45:06;;;;;;;82.90;7.53;;;14.20;88.40;;;;;;5080963;28;20120;-60
2022/04/25 10:47:31;;;;;;;63.75;6.93;;;14.20;87.70;;;;;;5060250;28;20561;-60
2022/04/25 10:49:57;;;;;;;69.47;7.53;;;14.30;87.60;;;;;;5057788;28;20102;-60
2022/04/25 10:55:20;;;;;;;53.97;6.20;;;14.40;88.00;;;;;;5078967;28;20052;-60
2022/04/25 10:58:03;;;;;;;42.38;5.20;;;14.30;87.70;;;;;;5048505;28;20047;-61
2022/04/25 11:03:07;;;;;;;52.10;5.35;;;14.40;88.00;;;;;;5060422;28;20068;-60
2022/04/25 11:05:37;;;;;;;47.20;6.28;;;14.40;87.90;;;;;;5063644;28;20119;-60
2022/04/25 11:08:18;;;;;;;54.08;6.30;;;14.40;87.90;;;;;;5047789;28;20024;-60
2022/04/25 11:10:48;;;;;;;32.65;4.75;;;14.40;87.70;;;;;;5060243;28;20551;-60
2022/04/25 11:13:15;;;;;;;38.55;4.53;;;14.40;88.10;;;;;;5044422;28;20112;-59
2022/04/25 11:15:48;;;;;;;27.08;3.30;;;14.40;88.10;;;;;;5034394;28;20686;-60
2022/04/25 11:18:33;;;;;;;23.27;4.60;;;14.40;88.10;;;;;;5022319;28;20990;-60
2022/04/25 11:21:11;;;;;;;36.00;4.73;;;14.40;88.20;;;;;;5042037;28;20032;-60
2022/04/25 11:23:43;;;;;;;41.03;4.10;;;14.40;88.40;;;;;;5041684;28;20024;-60
2022/04/25 11:26:10;;;;;;;33.53;3.67;;;14.40;88.50;;;;;;5059288;28;20246;-60
2022/04/25 11:28:55;;;;;;;22.63;3.50;;;14.40;88.50;;;;;;5048511;28;20124;-60
2022/04/25 11:31:24;;;;;;;21.88;3.35;;;14.40;88.60;;;;;;5044443;28;20563;-60
2022/04/25 11:33:54;;;;;;;12.82;2.83;;;14.40;88.60;;;;;;5039686;28;20041;-60
2022/04/25 11:36:21;;;;;;;16.58;3.15;;;14.40;88.90;;;;;;5038985;28;20136;-60
2022/04/25 11:41:35;;;;;;;7.90;1.88;;;14.40;89.00;;;;;;5047783;28;20113;-60
2022/04/25 11:44:01;;;;;;;13.63;2.10;;;14.30;89.20;;;;;;5053910;28;20484;-60
2022/04/25 11:46:27;;;;;;;14.98;2.13;;;14.40;89.30;;;;;;5038228;28;20120;-61
2022/04/25 11:48:53;;;;;;;18.13;2.90;;;14.40;89.40;;;;;;5042527;28;20786;-60
2022/04/25 11:51:32;;;;;;;24.15;2.72;;;14.40;89.20;;;;;;5053316;28;20028;-60
2022/04/25 11:53:59;;;;;;;37.10;3.70;;;14.40;89.40;;;;;;5027438;28;20067;-60
2022/04/25 11:56:28;;;;;;;93.32;7.20;;;14.40;89.20;;;;;;5040276;28;20047;-60
2022/04/25 11:58:54;;;;;;;105.75;8.73;;;14.50;89.50;;;;;;5045181;28;20028;-60
2022/04/25 12:01:33;;;;;;;81.78;8.10;;;14.40;89.30;;;;;;5041001;28;20094;-60
2022/04/25 12:04:25;;;;;;;79.90;8.43;;;14.50;89.50;;;;;;5058456;28;20531;-60
2022/04/25 12:06:54;;;;;;;75.80;8.85;;;14.50;89.10;;;;;;5078922;28;20079;-59
2022/04/25 12:17:49;;;;;;;45.13;8.52;;;14.60;88.90;;;;;;5078172;28;20089;-60
2022/04/25 12:20:16;;;;;;;53.83;8.90;;;14.60;88.90;;;;;;5042136;28;20176;-59
2022/04/25 12:22:58;;;;;;;27.40;6.20;;;14.70;89.10;;;;;;5046040;28;20442;-60
2022/04/25 12:25:25;;;;;;;24.55;5.57;;;14.70;89.70;;;;;;5079361;28;20034;-60
2022/04/25 12:28:07;;;;;;;30.38;5.32;;;14.70;90.30;;;;;;5082584;28;20040;-59
2022/04/25 12:30:55;;;;;;;33.92;5.03;;;14.80;90.30;;;;;;5054965;28;20059;-60
2022/04/25 12:33:22;;;;;;;34.17;5.10;;;14.80;90.20;;;;;;5049304;28;20506;-60
2022/04/25 12:35:48;;;;;;;23.45;5.13;;;14.70;90.10;;;;;;5057197;28;20100;-60
2022/04/25 12:38:36;;;;;;;38.90;6.00;;;14.70;90.00;;;;;;5060960;28;20036;-60
2022/04/25 12:41:02;;;;;;;25.48;5.00;;;14.70;89.80;;;;;;5063045;28;20186;-60
2022/04/25 12:43:44;;;;;;;44.13;6.05;;;14.80;89.80;;;;;;5059397;28;20524;-59
2022/04/25 12:46:10;;;;;;;39.35;5.28;;;14.80;89.70;;;;;;5062149;28;20032;-61
2022/04/25 12:48:58;;;;;;;36.08;4.60;;;14.80;89.50;;;;;;5080925;28;20024;-60
2022/04/25 12:51:38;;;;;;;26.05;4.20;;;14.80;89.30;;;;;;5055897;28;20043;-60
2022/04/25 12:54:05;;;;;;;20.42;4.03;;;14.80;89.20;;;;;;5052840;28;20051;-60
2022/04/25 12:56:33;;;;;;;20.30;4.18;;;14.80;89.10;;;;;;5043754;28;20021;-60
2022/04/25 12:58:59;;;;;;;29.67;3.47;;;14.90;89.00;;;;;;5078629;28;20451;-60
2022/04/25 13:01:37;;;;;;;28.60;4.10;;;14.90;89.00;;;;;;5036801;28;20117;-60
2022/04/25 13:04:13;;;;;;;21.33;4.15;;;15.00;89.00;;;;;;5057249;28;20048;-60
2022/04/25 13:06:42;;;;;;;25.95;4.82;;;15.00;88.80;;;;;;5034760;28;20383;-60
2022/04/25 13:09:08;;;;;;;20.98;3.50;;;15.00;89.50;;;;;;5057079;28;20451;-60
2022/04/25 13:11:34;;;;;;;14.35;3.22;;;15.00;89.40;;;;;;5061965;28;20024;-60
2022/04/25 13:14:00;;;;;;;19.75;3.08;;;15.00;89.40;;;;;;5044242;28;20040;-60
2022/04/25 13:16:26;;;;;;;27.10;3.30;;;15.00;89.60;;;;;;5045396;28;20486;-60
2022/04/25 13:18:52;;;;;;;20.15;2.95;;;15.10;90.00;;;;;;5055327;28;20028;-60
2022/04/25 13:21:18;;;;;;;20.63;3.47;;;15.10;89.90;;;;;;5071309;28;20028;-59
2022/04/25 13:23:43;;;;;;;16.02;2.97;;;15.10;89.60;;;;;;5070783;28;20249;-60